sensor_id;sensor_type;location;lat;lon;timestamp;P1;durP1;ratioP1;P2;durP2;ratioP2
72319;SDS011;60269;52.502;16.732;2023-04-24T00:02:09;29.27;;;16.53;;
72319;SDS011;60269;52.502;16.732;2023-04-24T00:05:42;33.67;;;17.10;;
72319;SDS011;60269;52.502;16.732;2023-04-24T00:09:15;28.55;;;15.10;;
72319;SDS011;60269;52.502;16.732;2023-04-24T00:12:47;32.40;;;16.05;;
72319;SDS011;60269;52.502;16.732;2023-04-24T00:16:21;33.60;;;17.40;;
72319;SDS011;60269;52.502;16.732;2023-04-24T00:19:53;31.23;;;16.47;;
72319;SDS011;60269;52.502;16.732;2023-04-24T00:23:32;35.75;;;17.77;;
72319;SDS011;60269;52.502;16.732;2023-04-24T00:27:04;33.65;;;16.90;;
72319;SDS011;60269;52.502;16.732;2023-04-24T00:30:36;35.23;;;18.57;;
72319;SDS011;60269;52.502;16.732;2023-04-24T00:34:09;34.78;;;17.55;;
72319;SDS011;60269;52.502;16.732;2023-04-24T00:37:43;36.58;;;18.20;;
72319;SDS011;60269;52.502;16.732;2023-04-24T00:41:15;36.08;;;17.73;;
72319;SDS011;60269;52.502;16.732;2023-04-24T00:44:47;33.10;;;18.53;;
72319;SDS011;60269;52.502;16.732;2023-04-24T00:48:19;34.20;;;17.40;;
72319;SDS011;60269;52.502;16.732;2023-04-24T00:51:52;33.47;;;17.40;;
72319;SDS011;60269;52.502;16.732;2023-04-24T00:55:25;32.43;;;16.47;;
72319;SDS011;60269;52.502;16.732;2023-04-24T00:58:57;32.80;;;16.40;;
72319;SDS011;60269;52.502;16.732;2023-04-24T01:02:30;31.27;;;17.23;;
72319;SDS011;60269;52.502;16.732;2023-04-24T01:06:06;29.65;;;15.10;;
72319;SDS011;60269;52.502;16.732;2023-04-24T01:09:38;28.20;;;14.97;;
72319;SDS011;60269;52.502;16.732;2023-04-24T01:13:14;27.25;;;13.85;;
72319;SDS011;60269;52.502;16.732;2023-04-24T01:16:46;28.98;;;14.02;;
72319;SDS011;60269;52.502;16.732;2023-04-24T01:20:18;26.60;;;13.57;;
72319;SDS011;60269;52.502;16.732;2023-04-24T01:23:50;25.37;;;14.30;;
72319;SDS011;60269;52.502;16.732;2023-04-24T01:27:23;25.05;;;12.95;;
72319;SDS011;60269;52.502;16.732;2023-04-24T01:30:54;23.73;;;12.43;;
72319;SDS011;60269;52.502;16.732;2023-04-24T01:34:28;25.20;;;12.93;;
72319;SDS011;60269;52.502;16.732;2023-04-24T01:37:59;23.52;;;12.50;;
72319;SDS011;60269;52.502;16.732;2023-04-24T01:41:32;23.70;;;12.07;;
72319;SDS011;60269;52.502;16.732;2023-04-24T01:45:04;22.65;;;11.88;;
72319;SDS011;60269;52.502;16.732;2023-04-24T01:48:37;29.43;;;14.60;;
72319;SDS011;60269;52.502;16.732;2023-04-24T01:52:09;26.63;;;12.52;;
72319;SDS011;60269;52.502;16.732;2023-04-24T01:55:41;22.67;;;10.88;;
72319;SDS011;60269;52.502;16.732;2023-04-24T01:59:13;22.80;;;11.40;;
72319;SDS011;60269;52.502;16.732;2023-04-24T02:02:48;22.37;;;11.77;;
72319;SDS011;60269;52.502;16.732;2023-04-24T02:06:20;21.17;;;10.98;;
72319;SDS011;60269;52.502;16.732;2023-04-24T02:09:53;22.70;;;11.25;;
72319;SDS011;60269;52.502;16.732;2023-04-24T02:13:24;24.07;;;11.63;;
72319;SDS011;60269;52.502;16.732;2023-04-24T02:16:57;20.17;;;10.07;;
72319;SDS011;60269;52.502;16.732;2023-04-24T02:20:29;19.13;;;9.90;;
72319;SDS011;60269;52.502;16.732;2023-04-24T02:24:01;17.35;;;8.35;;
72319;SDS011;60269;52.502;16.732;2023-04-24T02:27:33;19.47;;;8.40;;
72319;SDS011;60269;52.502;16.732;2023-04-24T02:31:06;17.27;;;8.82;;
72319;SDS011;60269;52.502;16.732;2023-04-24T02:34:38;20.65;;;8.77;;
72319;SDS011;60269;52.502;16.732;2023-04-24T02:38:10;17.37;;;8.60;;
72319;SDS011;60269;52.502;16.732;2023-04-24T02:41:42;17.67;;;9.10;;
72319;SDS011;60269;52.502;16.732;2023-04-24T02:45:15;15.38;;;7.68;;
72319;SDS011;60269;52.502;16.732;2023-04-24T02:48:47;17.10;;;8.30;;
72319;SDS011;60269;52.502;16.732;2023-04-24T02:52:19;16.80;;;7.53;;
72319;SDS011;60269;52.502;16.732;2023-04-24T02:55:51;16.90;;;7.90;;
72319;SDS011;60269;52.502;16.732;2023-04-24T02:59:23;17.08;;;7.70;;
72319;SDS011;60269;52.502;16.732;2023-04-24T03:02:55;14.57;;;7.70;;
72319;SDS011;60269;52.502;16.732;2023-04-24T03:06:27;16.83;;;7.43;;
72319;SDS011;60269;52.502;16.732;2023-04-24T03:09:59;17.23;;;7.47;;
72319;SDS011;60269;52.502;16.732;2023-04-24T03:13:32;16.42;;;8.02;;
72319;SDS011;60269;52.502;16.732;2023-04-24T03:17:03;18.27;;;7.77;;
72319;SDS011;60269;52.502;16.732;2023-04-24T03:20:36;18.03;;;8.60;;
72319;SDS011;60269;52.502;16.732;2023-04-24T03:24:08;18.17;;;8.85;;
72319;SDS011;60269;52.502;16.732;2023-04-24T03:27:41;19.00;;;8.60;;
72319;SDS011;60269;52.502;16.732;2023-04-24T03:31:13;18.73;;;8.87;;
72319;SDS011;60269;52.502;16.732;2023-04-24T03:34:45;19.13;;;8.90;;
72319;SDS011;60269;52.502;16.732;2023-04-24T03:38:17;18.08;;;9.23;;
72319;SDS011;60269;52.502;16.732;2023-04-24T03:41:49;18.93;;;8.77;;
72319;SDS011;60269;52.502;16.732;2023-04-24T03:45:21;17.80;;;8.27;;
72319;SDS011;60269;52.502;16.732;2023-04-24T03:48:53;17.38;;;9.02;;
72319;SDS011;60269;52.502;16.732;2023-04-24T03:52:25;18.33;;;9.02;;
72319;SDS011;60269;52.502;16.732;2023-04-24T03:55:57;18.13;;;9.10;;
72319;SDS011;60269;52.502;16.732;2023-04-24T03:59:29;19.95;;;9.57;;
72319;SDS011;60269;52.502;16.732;2023-04-24T04:03:01;20.13;;;10.23;;
72319;SDS011;60269;52.502;16.732;2023-04-24T04:06:33;21.03;;;10.23;;
72319;SDS011;60269;52.502;16.732;2023-04-24T04:10:06;17.92;;;9.23;;
72319;SDS011;60269;52.502;16.732;2023-04-24T04:13:38;19.52;;;9.65;;
72319;SDS011;60269;52.502;16.732;2023-04-24T04:17:11;20.92;;;10.65;;
72319;SDS011;60269;52.502;16.732;2023-04-24T04:20:43;22.57;;;9.23;;
72319;SDS011;60269;52.502;16.732;2023-04-24T04:24:15;19.35;;;8.65;;
72319;SDS011;60269;52.502;16.732;2023-04-24T04:27:48;21.23;;;9.02;;
72319;SDS011;60269;52.502;16.732;2023-04-24T04:31:20;19.57;;;9.40;;
72319;SDS011;60269;52.502;16.732;2023-04-24T04:34:52;23.20;;;9.50;;
72319;SDS011;60269;52.502;16.732;2023-04-24T04:38:25;21.58;;;9.75;;
72319;SDS011;60269;52.502;16.732;2023-04-24T04:42:01;17.15;;;9.35;;
72319;SDS011;60269;52.502;16.732;2023-04-24T04:45:33;15.73;;;8.60;;
72319;SDS011;60269;52.502;16.732;2023-04-24T04:49:06;17.52;;;8.98;;
72319;SDS011;60269;52.502;16.732;2023-04-24T04:52:40;20.30;;;9.90;;
72319;SDS011;60269;52.502;16.732;2023-04-24T04:56:11;20.23;;;9.60;;
72319;SDS011;60269;52.502;16.732;2023-04-24T04:59:44;17.57;;;9.20;;
72319;SDS011;60269;52.502;16.732;2023-04-24T05:03:16;21.58;;;9.98;;
72319;SDS011;60269;52.502;16.732;2023-04-24T05:06:52;21.35;;;10.57;;
72319;SDS011;60269;52.502;16.732;2023-04-24T05:10:24;18.47;;;9.40;;
72319;SDS011;60269;52.502;16.732;2023-04-24T05:13:56;19.60;;;10.30;;
72319;SDS011;60269;52.502;16.732;2023-04-24T05:17:28;20.95;;;9.82;;
72319;SDS011;60269;52.502;16.732;2023-04-24T05:21:00;18.33;;;9.73;;
72319;SDS011;60269;52.502;16.732;2023-04-24T05:24:33;19.30;;;9.33;;
72319;SDS011;60269;52.502;16.732;2023-04-24T05:28:06;16.42;;;7.45;;
72319;SDS011;60269;52.502;16.732;2023-04-24T05:31:38;15.98;;;7.80;;
72319;SDS011;60269;52.502;16.732;2023-04-24T05:35:10;15.90;;;7.10;;
72319;SDS011;60269;52.502;16.732;2023-04-24T05:38:42;15.50;;;7.53;;
72319;SDS011;60269;52.502;16.732;2023-04-24T05:42:14;15.73;;;7.10;;
72319;SDS011;60269;52.502;16.732;2023-04-24T05:45:46;12.38;;;6.32;;
72319;SDS011;60269;52.502;16.732;2023-04-24T05:49:18;14.57;;;6.80;;
72319;SDS011;60269;52.502;16.732;2023-04-24T05:52:50;14.00;;;7.30;;
72319;SDS011;60269;52.502;16.732;2023-04-24T05:56:22;13.07;;;6.82;;
72319;SDS011;60269;52.502;16.732;2023-04-24T05:59:55;13.73;;;7.00;;
72319;SDS011;60269;52.502;16.732;2023-04-24T06:03:27;14.90;;;7.57;;
72319;SDS011;60269;52.502;16.732;2023-04-24T06:06:59;13.43;;;6.43;;
72319;SDS011;60269;52.502;16.732;2023-04-24T06:10:31;16.38;;;7.47;;
72319;SDS011;60269;52.502;16.732;2023-04-24T06:14:03;13.73;;;7.18;;
72319;SDS011;60269;52.502;16.732;2023-04-24T06:17:35;19.23;;;8.00;;
72319;SDS011;60269;52.502;16.732;2023-04-24T06:21:08;16.60;;;7.13;;
72319;SDS011;60269;52.502;16.732;2023-04-24T06:24:40;13.25;;;7.18;;
72319;SDS011;60269;52.502;16.732;2023-04-24T06:28:12;15.30;;;7.65;;
72319;SDS011;60269;52.502;16.732;2023-04-24T06:31:44;15.83;;;7.20;;
72319;SDS011;60269;52.502;16.732;2023-04-24T06:35:16;16.30;;;8.35;;
72319;SDS011;60269;52.502;16.732;2023-04-24T06:38:48;26.52;;;9.50;;
72319;SDS011;60269;52.502;16.732;2023-04-24T06:42:20;18.70;;;7.90;;
72319;SDS011;60269;52.502;16.732;2023-04-24T06:45:53;16.60;;;8.35;;
72319;SDS011;60269;52.502;16.732;2023-04-24T06:49:26;15.75;;;7.63;;
72319;SDS011;60269;52.502;16.732;2023-04-24T06:53:00;16.52;;;7.25;;
72319;SDS011;60269;52.502;16.732;2023-04-24T06:56:32;17.73;;;7.37;;
72319;SDS011;60269;52.502;16.732;2023-04-24T07:00:06;13.40;;;7.60;;
72319;SDS011;60269;52.502;16.732;2023-04-24T07:03:38;12.52;;;7.35;;
72319;SDS011;60269;52.502;16.732;2023-04-24T07:07:11;14.07;;;7.50;;
72319;SDS011;60269;52.502;16.732;2023-04-24T07:10:45;12.40;;;7.00;;
72319;SDS011;60269;52.502;16.732;2023-04-24T07:14:20;14.20;;;7.90;;
72319;SDS011;60269;52.502;16.732;2023-04-24T07:17:52;13.93;;;6.82;;
72319;SDS011;60269;52.502;16.732;2023-04-24T07:21:24;13.80;;;7.63;;
72319;SDS011;60269;52.502;16.732;2023-04-24T07:24:57;13.88;;;7.82;;
72319;SDS011;60269;52.502;16.732;2023-04-24T07:28:29;13.70;;;7.03;;
72319;SDS011;60269;52.502;16.732;2023-04-24T07:32:04;13.77;;;7.75;;
72319;SDS011;60269;52.502;16.732;2023-04-24T07:35:36;16.27;;;8.13;;
72319;SDS011;60269;52.502;16.732;2023-04-24T07:39:08;15.85;;;8.07;;
72319;SDS011;60269;52.502;16.732;2023-04-24T07:42:40;17.33;;;7.57;;
72319;SDS011;60269;52.502;16.732;2023-04-24T07:46:12;12.50;;;6.70;;
72319;SDS011;60269;52.502;16.732;2023-04-24T07:49:45;13.40;;;7.43;;
72319;SDS011;60269;52.502;16.732;2023-04-24T07:53:17;14.15;;;6.57;;
72319;SDS011;60269;52.502;16.732;2023-04-24T07:56:49;15.13;;;7.47;;
72319;SDS011;60269;52.502;16.732;2023-04-24T08:00:21;14.50;;;7.53;;
72319;SDS011;60269;52.502;16.732;2023-04-24T08:03:53;13.75;;;7.65;;
72319;SDS011;60269;52.502;16.732;2023-04-24T08:07:25;15.85;;;8.82;;
72319;SDS011;60269;52.502;16.732;2023-04-24T08:10:57;12.63;;;6.13;;
72319;SDS011;60269;52.502;16.732;2023-04-24T08:14:30;14.77;;;6.70;;
72319;SDS011;60269;52.502;16.732;2023-04-24T08:18:02;13.77;;;7.03;;
72319;SDS011;60269;52.502;16.732;2023-04-24T08:21:34;13.52;;;6.53;;
72319;SDS011;60269;52.502;16.732;2023-04-24T08:25:06;16.87;;;7.50;;
72319;SDS011;60269;52.502;16.732;2023-04-24T08:28:42;14.17;;;7.93;;
72319;SDS011;60269;52.502;16.732;2023-04-24T08:32:14;14.43;;;7.60;;
72319;SDS011;60269;52.502;16.732;2023-04-24T08:35:46;14.77;;;6.88;;
72319;SDS011;60269;52.502;16.732;2023-04-24T08:39:18;16.47;;;8.23;;
72319;SDS011;60269;52.502;16.732;2023-04-24T08:42:50;14.00;;;6.93;;
72319;SDS011;60269;52.502;16.732;2023-04-24T08:46:26;15.07;;;6.53;;
72319;SDS011;60269;52.502;16.732;2023-04-24T08:49:58;15.05;;;7.05;;
72319;SDS011;60269;52.502;16.732;2023-04-24T08:53:31;13.13;;;6.97;;
72319;SDS011;60269;52.502;16.732;2023-04-24T08:57:04;14.57;;;7.87;;
72319;SDS011;60269;52.502;16.732;2023-04-24T09:00:39;15.20;;;7.70;;
72319;SDS011;60269;52.502;16.732;2023-04-24T09:04:15;13.98;;;7.15;;
72319;SDS011;60269;52.502;16.732;2023-04-24T09:07:54;12.93;;;8.03;;
72319;SDS011;60269;52.502;16.732;2023-04-24T09:11:28;14.63;;;7.73;;
72319;SDS011;60269;52.502;16.732;2023-04-24T09:15:02;13.00;;;7.80;;
72319;SDS011;60269;52.502;16.732;2023-04-24T09:18:35;12.73;;;7.40;;
72319;SDS011;60269;52.502;16.732;2023-04-24T09:22:07;14.17;;;8.10;;
72319;SDS011;60269;52.502;16.732;2023-04-24T09:25:40;15.13;;;8.00;;
72319;SDS011;60269;52.502;16.732;2023-04-24T09:29:16;14.18;;;7.57;;
72319;SDS011;60269;52.502;16.732;2023-04-24T09:32:49;13.07;;;7.15;;
72319;SDS011;60269;52.502;16.732;2023-04-24T09:36:37;12.70;;;7.53;;
72319;SDS011;60269;52.502;16.732;2023-04-24T09:40:18;13.70;;;7.23;;
72319;SDS011;60269;52.502;16.732;2023-04-24T09:43:54;15.13;;;8.45;;
72319;SDS011;60269;52.502;16.732;2023-04-24T09:47:27;12.23;;;7.07;;
72319;SDS011;60269;52.502;16.732;2023-04-24T09:51:02;12.10;;;6.83;;
72319;SDS011;60269;52.502;16.732;2023-04-24T09:54:35;12.73;;;7.37;;
72319;SDS011;60269;52.502;16.732;2023-04-24T09:58:10;13.77;;;7.57;;
72319;SDS011;60269;52.502;16.732;2023-04-24T10:01:42;13.02;;;7.47;;
72319;SDS011;60269;52.502;16.732;2023-04-24T10:05:16;14.40;;;8.33;;
72319;SDS011;60269;52.502;16.732;2023-04-24T10:08:48;14.10;;;7.77;;
72319;SDS011;60269;52.502;16.732;2023-04-24T10:12:22;13.32;;;7.70;;
72319;SDS011;60269;52.502;16.732;2023-04-24T10:15:54;13.60;;;7.38;;
72319;SDS011;60269;52.502;16.732;2023-04-24T10:19:28;14.57;;;8.20;;
72319;SDS011;60269;52.502;16.732;2023-04-24T10:23:01;13.27;;;7.07;;
72319;SDS011;60269;52.502;16.732;2023-04-24T10:26:34;17.50;;;8.10;;
72319;SDS011;60269;52.502;16.732;2023-04-24T10:30:07;12.88;;;7.78;;
72319;SDS011;60269;52.502;16.732;2023-04-24T10:33:42;11.90;;;7.20;;
72319;SDS011;60269;52.502;16.732;2023-04-24T10:37:15;12.60;;;6.60;;
72319;SDS011;60269;52.502;16.732;2023-04-24T10:40:47;10.40;;;5.93;;
72319;SDS011;60269;52.502;16.732;2023-04-24T10:44:19;13.60;;;5.05;;
72319;SDS011;60269;52.502;16.732;2023-04-24T10:51:44;9.73;;;4.65;;
72319;SDS011;60269;52.502;16.732;2023-04-24T10:55:39;10.15;;;3.38;;
72319;SDS011;60269;52.502;16.732;2023-04-24T10:59:15;7.38;;;2.72;;
72319;SDS011;60269;52.502;16.732;2023-04-24T11:02:56;8.17;;;2.70;;
72319;SDS011;60269;52.502;16.732;2023-04-24T11:06:33;6.22;;;2.67;;
72319;SDS011;60269;52.502;16.732;2023-04-24T11:10:07;4.75;;;1.52;;
72319;SDS011;60269;52.502;16.732;2023-04-24T11:21:10;5.15;;;1.42;;
72319;SDS011;60269;52.502;16.732;2023-04-24T11:28:17;4.53;;;1.73;;
72319;SDS011;60269;52.502;16.732;2023-04-24T11:31:50;4.00;;;1.40;;
72319;SDS011;60269;52.502;16.732;2023-04-24T11:35:23;3.97;;;1.02;;
72319;SDS011;60269;52.502;16.732;2023-04-24T11:39:00;5.05;;;1.30;;
72319;SDS011;60269;52.502;16.732;2023-04-24T11:42:36;5.57;;;1.63;;
72319;SDS011;60269;52.502;16.732;2023-04-24T11:46:12;4.37;;;1.40;;
72319;SDS011;60269;52.502;16.732;2023-04-24T11:49:50;5.20;;;2.00;;
72319;SDS011;60269;52.502;16.732;2023-04-24T11:53:21;4.70;;;1.55;;
72319;SDS011;60269;52.502;16.732;2023-04-24T11:56:54;5.53;;;1.60;;
72319;SDS011;60269;52.502;16.732;2023-04-24T12:00:26;4.63;;;1.63;;
72319;SDS011;60269;52.502;16.732;2023-04-24T12:04:02;3.58;;;1.38;;
72319;SDS011;60269;52.502;16.732;2023-04-24T12:07:41;4.47;;;1.38;;
72319;SDS011;60269;52.502;16.732;2023-04-24T12:11:16;5.10;;;1.67;;
72319;SDS011;60269;52.502;16.732;2023-04-24T12:14:51;4.40;;;1.33;;
72319;SDS011;60269;52.502;16.732;2023-04-24T12:18:25;5.22;;;1.83;;
72319;SDS011;60269;52.502;16.732;2023-04-24T12:21:59;4.43;;;1.17;;
72319;SDS011;60269;52.502;16.732;2023-04-24T12:25:35;4.40;;;1.30;;
72319;SDS011;60269;52.502;16.732;2023-04-24T12:29:07;3.77;;;1.20;;
72319;SDS011;60269;52.502;16.732;2023-04-24T12:32:44;3.70;;;0.93;;
72319;SDS011;60269;52.502;16.732;2023-04-24T12:36:20;5.30;;;0.88;;
72319;SDS011;60269;52.502;16.732;2023-04-24T12:40:11;5.43;;;1.10;;
72319;SDS011;60269;52.502;16.732;2023-04-24T12:43:51;3.33;;;0.70;;
72319;SDS011;60269;52.502;16.732;2023-04-24T12:47:24;3.05;;;0.98;;
72319;SDS011;60269;52.502;16.732;2023-04-24T12:50:59;4.80;;;1.17;;
72319;SDS011;60269;52.502;16.732;2023-04-24T12:54:34;3.88;;;1.00;;
72319;SDS011;60269;52.502;16.732;2023-04-24T12:58:06;3.07;;;0.90;;
72319;SDS011;60269;52.502;16.732;2023-04-24T13:01:38;4.18;;;0.80;;
72319;SDS011;60269;52.502;16.732;2023-04-24T13:05:11;3.53;;;0.90;;
72319;SDS011;60269;52.502;16.732;2023-04-24T13:08:45;2.60;;;0.67;;
72319;SDS011;60269;52.502;16.732;2023-04-24T13:12:19;3.57;;;1.00;;
72319;SDS011;60269;52.502;16.732;2023-04-24T13:15:51;2.20;;;0.60;;
72319;SDS011;60269;52.502;16.732;2023-04-24T13:19:26;4.13;;;0.90;;
72319;SDS011;60269;52.502;16.732;2023-04-24T13:22:59;3.37;;;1.00;;
72319;SDS011;60269;52.502;16.732;2023-04-24T13:26:31;4.20;;;0.80;;
72319;SDS011;60269;52.502;16.732;2023-04-24T13:30:04;3.92;;;0.80;;
72319;SDS011;60269;52.502;16.732;2023-04-24T13:33:36;3.53;;;0.50;;
72319;SDS011;60269;52.502;16.732;2023-04-24T13:37:08;2.50;;;0.50;;
72319;SDS011;60269;52.502;16.732;2023-04-24T13:40:40;1.93;;;0.33;;
72319;SDS011;60269;52.502;16.732;2023-04-24T13:44:12;1.90;;;0.30;;
72319;SDS011;60269;52.502;16.732;2023-04-24T13:47:44;0.95;;;0.30;;
72319;SDS011;60269;52.502;16.732;2023-04-24T13:51:19;6.43;;;0.33;;
72319;SDS011;60269;52.502;16.732;2023-04-24T13:54:51;0.87;;;0.20;;
72319;SDS011;60269;52.502;16.732;2023-04-24T13:58:23;1.52;;;0.30;;
72319;SDS011;60269;52.502;16.732;2023-04-24T14:01:54;1.67;;;0.30;;
72319;SDS011;60269;52.502;16.732;2023-04-24T14:05:27;3.93;;;0.30;;
72319;SDS011;60269;52.502;16.732;2023-04-24T14:08:58;1.73;;;0.30;;
72319;SDS011;60269;52.502;16.732;2023-04-24T14:12:33;1.00;;;0.30;;
72319;SDS011;60269;52.502;16.732;2023-04-24T14:16:05;1.77;;;0.40;;
72319;SDS011;60269;52.502;16.732;2023-04-24T14:19:37;4.33;;;0.53;;
72319;SDS011;60269;52.502;16.732;2023-04-24T14:23:09;3.30;;;0.47;;
72319;SDS011;60269;52.502;16.732;2023-04-24T14:26:44;2.05;;;0.45;;
72319;SDS011;60269;52.502;16.732;2023-04-24T14:30:19;3.17;;;0.30;;
72319;SDS011;60269;52.502;16.732;2023-04-24T14:33:50;7.10;;;0.60;;
72319;SDS011;60269;52.502;16.732;2023-04-24T14:37:23;1.97;;;0.20;;
72319;SDS011;60269;52.502;16.732;2023-04-24T14:40:54;2.78;;;0.50;;
72319;SDS011;60269;52.502;16.732;2023-04-24T14:44:38;3.92;;;0.43;;
72319;SDS011;60269;52.502;16.732;2023-04-24T14:48:10;1.60;;;0.30;;
72319;SDS011;60269;52.502;16.732;2023-04-24T14:51:43;2.67;;;0.40;;
72319;SDS011;60269;52.502;16.732;2023-04-24T14:55:14;2.92;;;0.50;;
72319;SDS011;60269;52.502;16.732;2023-04-24T14:58:49;3.80;;;0.60;;
72319;SDS011;60269;52.502;16.732;2023-04-24T15:02:21;2.50;;;0.60;;
72319;SDS011;60269;52.502;16.732;2023-04-24T15:05:53;3.88;;;0.77;;
72319;SDS011;60269;52.502;16.732;2023-04-24T15:09:25;2.67;;;0.70;;
72319;SDS011;60269;52.502;16.732;2023-04-24T15:12:58;5.00;;;0.70;;
72319;SDS011;60269;52.502;16.732;2023-04-24T15:16:31;2.67;;;0.50;;
72319;SDS011;60269;52.502;16.732;2023-04-24T15:20:04;3.28;;;0.70;;
72319;SDS011;60269;52.502;16.732;2023-04-24T15:23:37;3.17;;;0.50;;
72319;SDS011;60269;52.502;16.732;2023-04-24T15:27:10;1.63;;;0.30;;
72319;SDS011;60269;52.502;16.732;2023-04-24T15:30:43;2.28;;;0.43;;
72319;SDS011;60269;52.502;16.732;2023-04-24T15:34:15;4.63;;;0.45;;
72319;SDS011;60269;52.502;16.732;2023-04-24T15:37:47;2.25;;;0.45;;
72319;SDS011;60269;52.502;16.732;2023-04-24T15:41:19;1.80;;;0.43;;
72319;SDS011;60269;52.502;16.732;2023-04-24T15:44:55;3.40;;;0.60;;
72319;SDS011;60269;52.502;16.732;2023-04-24T15:48:28;5.00;;;1.00;;
72319;SDS011;60269;52.502;16.732;2023-04-24T15:52:00;3.70;;;0.50;;
72319;SDS011;60269;52.502;16.732;2023-04-24T15:55:33;3.63;;;0.77;;
72319;SDS011;60269;52.502;16.732;2023-04-24T15:59:05;4.32;;;0.60;;
72319;SDS011;60269;52.502;16.732;2023-04-24T16:02:37;4.15;;;0.75;;
72319;SDS011;60269;52.502;16.732;2023-04-24T16:06:11;3.07;;;0.80;;
72319;SDS011;60269;52.502;16.732;2023-04-24T16:09:53;3.97;;;1.00;;
72319;SDS011;60269;52.502;16.732;2023-04-24T16:13:27;4.28;;;0.77;;
72319;SDS011;60269;52.502;16.732;2023-04-24T16:17:00;5.10;;;1.30;;
72319;SDS011;60269;52.502;16.732;2023-04-24T16:20:33;3.30;;;0.77;;
72319;SDS011;60269;52.502;16.732;2023-04-24T16:24:05;3.13;;;0.53;;
72319;SDS011;60269;52.502;16.732;2023-04-24T16:27:37;3.83;;;0.80;;
72319;SDS011;60269;52.502;16.732;2023-04-24T16:31:21;2.47;;;0.40;;
72319;SDS011;60269;52.502;16.732;2023-04-24T16:34:53;1.73;;;0.30;;
72319;SDS011;60269;52.502;16.732;2023-04-24T16:38:25;1.10;;;0.30;;
72319;SDS011;60269;52.502;16.732;2023-04-24T16:42:01;2.85;;;0.45;;
72319;SDS011;60269;52.502;16.732;2023-04-24T16:45:34;2.95;;;0.40;;
72319;SDS011;60269;52.502;16.732;2023-04-24T16:49:06;3.17;;;0.50;;
72319;SDS011;60269;52.502;16.732;2023-04-24T16:52:38;2.00;;;0.33;;
72319;SDS011;60269;52.502;16.732;2023-04-24T16:56:10;3.80;;;0.57;;
72319;SDS011;60269;52.502;16.732;2023-04-24T16:59:44;3.97;;;0.77;;
72319;SDS011;60269;52.502;16.732;2023-04-24T17:03:16;3.90;;;0.60;;
72319;SDS011;60269;52.502;16.732;2023-04-24T17:06:48;3.23;;;0.60;;
72319;SDS011;60269;52.502;16.732;2023-04-24T17:10:20;4.88;;;0.70;;
72319;SDS011;60269;52.502;16.732;2023-04-24T17:13:53;4.40;;;0.60;;
72319;SDS011;60269;52.502;16.732;2023-04-24T17:17:24;3.83;;;0.80;;
72319;SDS011;60269;52.502;16.732;2023-04-24T17:20:57;4.13;;;0.80;;
72319;SDS011;60269;52.502;16.732;2023-04-24T17:24:29;4.55;;;1.00;;
72319;SDS011;60269;52.502;16.732;2023-04-24T17:28:27;5.18;;;0.93;;
72319;SDS011;60269;52.502;16.732;2023-04-24T17:32:00;6.30;;;1.30;;
72319;SDS011;60269;52.502;16.732;2023-04-24T17:35:33;4.77;;;0.87;;
72319;SDS011;60269;52.502;16.732;2023-04-24T17:39:16;5.55;;;1.35;;
72319;SDS011;60269;52.502;16.732;2023-04-24T17:42:49;4.70;;;0.80;;
72319;SDS011;60269;52.502;16.732;2023-04-24T17:46:21;3.60;;;0.63;;
72319;SDS011;60269;52.502;16.732;2023-04-24T17:49:53;5.13;;;1.10;;
72319;SDS011;60269;52.502;16.732;2023-04-24T17:53:25;6.40;;;1.00;;
72319;SDS011;60269;52.502;16.732;2023-04-24T17:56:57;7.50;;;1.35;;
72319;SDS011;60269;52.502;16.732;2023-04-24T18:00:29;5.30;;;1.60;;
72319;SDS011;60269;52.502;16.732;2023-04-24T18:04:02;5.72;;;1.50;;
72319;SDS011;60269;52.502;16.732;2023-04-24T18:07:34;5.63;;;1.10;;
72319;SDS011;60269;52.502;16.732;2023-04-24T18:11:06;5.35;;;1.58;;
72319;SDS011;60269;52.502;16.732;2023-04-24T18:14:38;5.53;;;1.30;;
72319;SDS011;60269;52.502;16.732;2023-04-24T18:18:11;6.13;;;1.63;;
72319;SDS011;60269;52.502;16.732;2023-04-24T18:21:43;4.95;;;1.52;;
72319;SDS011;60269;52.502;16.732;2023-04-24T18:25:15;4.90;;;1.50;;
72319;SDS011;60269;52.502;16.732;2023-04-24T18:28:48;5.83;;;1.90;;
72319;SDS011;60269;52.502;16.732;2023-04-24T18:32:20;6.65;;;2.30;;
72319;SDS011;60269;52.502;16.732;2023-04-24T18:35:52;5.97;;;1.67;;
72319;SDS011;60269;52.502;16.732;2023-04-24T18:39:25;6.33;;;2.10;;
72319;SDS011;60269;52.502;16.732;2023-04-24T18:42:57;6.50;;;2.45;;
72319;SDS011;60269;52.502;16.732;2023-04-24T18:46:29;6.50;;;2.42;;
72319;SDS011;60269;52.502;16.732;2023-04-24T18:50:05;7.00;;;2.70;;
72319;SDS011;60269;52.502;16.732;2023-04-24T18:53:37;8.53;;;2.83;;
72319;SDS011;60269;52.502;16.732;2023-04-24T18:57:09;11.57;;;3.10;;
72319;SDS011;60269;52.502;16.732;2023-04-24T19:00:41;9.30;;;2.72;;
72319;SDS011;60269;52.502;16.732;2023-04-24T19:04:13;6.90;;;2.90;;
72319;SDS011;60269;52.502;16.732;2023-04-24T19:07:46;7.38;;;2.90;;
72319;SDS011;60269;52.502;16.732;2023-04-24T19:11:18;9.15;;;2.80;;
72319;SDS011;60269;52.502;16.732;2023-04-24T19:14:50;8.55;;;3.30;;
72319;SDS011;60269;52.502;16.732;2023-04-24T19:18:22;9.30;;;3.20;;
72319;SDS011;60269;52.502;16.732;2023-04-24T19:21:57;9.52;;;3.25;;
72319;SDS011;60269;52.502;16.732;2023-04-24T19:25:28;8.73;;;3.45;;
72319;SDS011;60269;52.502;16.732;2023-04-24T19:29:01;11.50;;;3.83;;
72319;SDS011;60269;52.502;16.732;2023-04-24T19:32:34;8.93;;;3.67;;
72319;SDS011;60269;52.502;16.732;2023-04-24T19:36:06;9.63;;;3.42;;
72319;SDS011;60269;52.502;16.732;2023-04-24T19:39:38;10.57;;;4.10;;
72319;SDS011;60269;52.502;16.732;2023-04-24T19:43:11;10.60;;;3.67;;
72319;SDS011;60269;52.502;16.732;2023-04-24T19:46:43;9.82;;;3.60;;
72319;SDS011;60269;52.502;16.732;2023-04-24T19:50:15;9.90;;;4.10;;
72319;SDS011;60269;52.502;16.732;2023-04-24T19:53:47;10.38;;;4.05;;
72319;SDS011;60269;52.502;16.732;2023-04-24T19:57:19;8.63;;;3.13;;
72319;SDS011;60269;52.502;16.732;2023-04-24T20:00:51;10.00;;;3.80;;
72319;SDS011;60269;52.502;16.732;2023-04-24T20:04:23;9.68;;;4.40;;
72319;SDS011;60269;52.502;16.732;2023-04-24T20:07:56;12.20;;;4.23;;
72319;SDS011;60269;52.502;16.732;2023-04-24T20:11:27;12.97;;;4.07;;
72319;SDS011;60269;52.502;16.732;2023-04-24T20:15:00;11.05;;;4.07;;
72319;SDS011;60269;52.502;16.732;2023-04-24T20:18:34;12.15;;;4.65;;
72319;SDS011;60269;52.502;16.732;2023-04-24T20:22:07;10.70;;;4.00;;
72319;SDS011;60269;52.502;16.732;2023-04-24T20:25:43;10.35;;;4.28;;
72319;SDS011;60269;52.502;16.732;2023-04-24T20:29:15;14.38;;;4.38;;
72319;SDS011;60269;52.502;16.732;2023-04-24T20:32:47;13.13;;;4.75;;
72319;SDS011;60269;52.502;16.732;2023-04-24T20:36:19;9.13;;;3.30;;
72319;SDS011;60269;52.502;16.732;2023-04-24T20:39:51;11.77;;;4.00;;
72319;SDS011;60269;52.502;16.732;2023-04-24T20:43:26;10.70;;;4.78;;
72319;SDS011;60269;52.502;16.732;2023-04-24T20:46:59;10.33;;;4.70;;
72319;SDS011;60269;52.502;16.732;2023-04-24T20:50:34;12.60;;;4.53;;
72319;SDS011;60269;52.502;16.732;2023-04-24T20:54:12;12.52;;;5.65;;
72319;SDS011;60269;52.502;16.732;2023-04-24T20:57:44;17.88;;;6.80;;
72319;SDS011;60269;52.502;16.732;2023-04-24T21:01:16;15.90;;;6.13;;
72319;SDS011;60269;52.502;16.732;2023-04-24T21:04:48;13.50;;;6.17;;
72319;SDS011;60269;52.502;16.732;2023-04-24T21:08:21;12.93;;;5.75;;